createdAt,value
2023-02-09T14:30:17.445Z,101357.75
2023-02-09T14:33:51.164Z,101355.24
2023-02-09T14:37:31.621Z,101354.72
2023-02-09T14:49:59.946Z,101339.12
2023-02-09T14:53:22.030Z,101333.39
2023-02-09T14:56:49.165Z,101334.51
2023-02-09T15:00:05.075Z,101335.80
2023-02-09T15:03:43.299Z,101335.79
2023-02-09T15:07:26.679Z,101342.09
2023-02-09T15:11:42.760Z,101348.19
2023-02-09T15:15:17.029Z,101350.58
2023-02-09T15:19:03.262Z,101354.36
2023-02-09T15:23:08.093Z,101350.30
2023-02-09T15:30:51.272Z,101355.13
2023-02-09T15:33:57.500Z,101354.95
2023-02-09T15:37:03.110Z,101351.67
2023-02-09T15:40:15.438Z,101347.16
2023-02-09T15:43:46.196Z,101349.23
2023-02-09T15:47:13.658Z,101347.66
2023-02-09T15:50:18.366Z,101345.59
2023-02-09T15:53:22.779Z,101342.27
2023-02-09T15:56:53.079Z,101341.92
2023-02-09T16:01:35.091Z,101342.61
2023-02-09T16:05:09.821Z,101346.41
2023-02-09T16:08:53.484Z,101342.23
2023-02-09T16:17:23.677Z,101337.16
2023-02-09T16:25:29.366Z,101331.73
2023-02-09T16:45:33.099Z,101327.30
2023-02-09T16:49:25.089Z,101323.11
2023-02-09T16:52:39.363Z,101321.17
2023-02-09T16:56:00.755Z,101323.06
2023-02-09T16:59:31.249Z,101325.13
2023-02-09T17:03:31.200Z,101323.71
2023-02-09T17:06:40.048Z,101323.36
2023-02-09T17:10:05.214Z,101319.69
2023-02-09T17:13:10.065Z,101313.27
2023-02-09T17:17:38.430Z,101310.63
2023-02-09T17:26:53.222Z,101303.13
2023-02-09T17:35:47.925Z,101304.98
2023-02-09T17:38:56.349Z,101310.84
2023-02-09T17:42:19.989Z,101308.21
2023-02-09T17:47:05.547Z,101298.86
2023-02-09T17:50:17.372Z,101293.63
2023-02-09T17:54:29.026Z,101296.89
2023-02-09T17:58:57.373Z,101293.60
2023-02-09T18:02:19.309Z,101294.78
2023-02-09T18:05:27.866Z,101293.05
2023-02-09T18:08:30.832Z,101287.14
2023-02-09T18:21:40.273Z,101279.45
2023-02-09T18:24:48.917Z,101277.53
2023-02-09T18:27:58.641Z,101286.33
2023-02-09T18:35:45.769Z,101280.04
2023-02-09T18:39:23.947Z,101281.26
2023-02-09T18:42:31.273Z,101278.48
2023-02-09T18:45:42.180Z,101276.92
2023-02-09T18:48:47.410Z,101279.36
2023-02-09T18:52:00.210Z,101276.05
2023-02-09T18:55:07.691Z,101277.63
2023-02-09T18:58:13.144Z,101280.38
2023-02-09T19:01:22.601Z,101273.95
2023-02-09T19:04:34.689Z,101266.88
2023-02-09T19:07:43.687Z,101260.13
2023-02-09T19:11:20.303Z,101260.14
2023-02-09T19:14:37.626Z,101257.34
2023-02-09T19:17:50.989Z,101257.48
2023-02-09T19:21:24.624Z,101255.18
2023-02-09T19:24:53.326Z,101250.13
2023-02-09T19:32:32.310Z,101240.68
2023-02-09T19:35:40.923Z,101236.84
2023-02-09T19:38:49.505Z,101233.38
2023-02-09T19:46:59.048Z,101229.65
2023-02-09T19:50:10.417Z,101226.13
2023-02-09T19:54:03.081Z,101220.90
2023-02-09T19:57:09.513Z,101218.09
2023-02-09T20:00:45.950Z,101220.65
2023-02-09T20:05:08.791Z,101214.89
2023-02-09T20:13:43.254Z,101204.52
2023-02-09T20:16:56.716Z,101203.41
2023-02-09T20:20:03.752Z,101203.58
2023-02-09T20:23:15.143Z,101197.18
